This is the latest recevied weather packets stored in our database for station/object EB1TR-13. If no packets are shown the sender has not sent any weather packets the latest 10 day(s).
| Time | Temp. | Humidity | Pressure | Rain* | Wind** | Luminosity | Snow |
|---|---|---|---|---|---|---|---|
| 1787758988 | 22.78° C | 74% | 1005 hPa | 0 mm | - | 0 W/m² | - |
| 1787758089 | 22.22° C | 80% | 1006 hPa | 0 mm | - | 0 W/m² | - |
| 1787757189 | 21.67° C | 84% | 1006 hPa | 0 mm | - | 0 W/m² | - |
| 1787756288 | 21.67° C | 85% | 1006 hPa | 0 mm | - | 0 W/m² | - |
| 1787755388 | 21.67° C | 85% | 1006 hPa | 0 mm | - | 0 W/m² | - |
| 1787754488 | 21.11° C | 86% | 1007 hPa | 0 mm | - | 0 W/m² | - |
| 1787753588 | 20.56° C | 87% | 1007 hPa | 0 mm | - | 0 W/m² | - |
| 1787752688 | 20.56° C | 88% | 1006 hPa | 0 mm | - | 0 W/m² | - |
| 1787751788 | 20.56° C | 87% | 1006 hPa | 0 mm | - | 0 W/m² | - |
| 1787750888 | 23.89° C | 72% | 1007 hPa | 0 mm | - | 0 W/m² | - |
| 1787749988 | 23.89° C | 72% | 1006 hPa | 0 mm | - | 0 W/m² | - |
| 1787749088 | 23.89° C | 72% | 1006 hPa | 0 mm | - | 0 W/m² | - |
| 1787748188 | 23.89° C | 72% | 1006 hPa | 0 mm | - | 0 W/m² | - |
| 1787747288 | 23.89° C | 72% | 1006 hPa | 0 mm | - | 0 W/m² | - |
| 1787746388 | 23.89° C | 72% | 1006 hPa | 0 mm | - | 0 W/m² | - |
| 1787745489 | 23.89° C | 72% | 1006 hPa | 0 mm | - | 0 W/m² | - |
| 1787744588 | 24.44° C | 71% | 1006 hPa | 0 mm | - | 0 W/m² | - |
| 1787743688 | 24.44° C | 70% | 1007 hPa | 0 mm | - | 0 W/m² | - |
| 1787742789 | 24.44° C | 72% | 1007 hPa | 0 mm | - | 0 W/m² | - |
| 1787741888 | 24.44° C | 73% | 1006 hPa | 0 mm | - | 0 W/m² | - |
| 1787740988 | 23.33° C | 76% | 1006 hPa | 0 mm | - | 0 W/m² | - |
| 1787740089 | 23.33° C | 77% | 1007 hPa | 0 mm | - | 0 W/m² | - |
| 1787739189 | 22.78° C | 78% | 1007 hPa | 0 mm | - | 0 W/m² | - |
| 1787738288 | 22.78° C | 79% | 1007 hPa | 0 mm | - | 0 W/m² | - |
| 1787737388 | 22.78° C | 78% | 1007 hPa | 0 mm | - | 0 W/m² | - |
* Rain latest hour (hover to see other rain measurements)
** Current wind speed in m/s (hover to see current wind gust speed)